sensor_id;sensor_type;location;lat;lon;timestamp;P1;durP1;ratioP1;P2;durP2;ratioP2
4182;SDS011;2105;52.300;9.182;2023-12-07T00:01:20;32.97;;;23.17;;
4182;SDS011;2105;52.300;9.182;2023-12-07T00:03:47;33.97;;;24.77;;
4182;SDS011;2105;52.300;9.182;2023-12-07T00:06:13;33.50;;;24.13;;
4182;SDS011;2105;52.300;9.182;2023-12-07T00:08:40;35.90;;;24.63;;
4182;SDS011;2105;52.300;9.182;2023-12-07T00:11:08;38.73;;;24.20;;
4182;SDS011;2105;52.300;9.182;2023-12-07T00:13:34;34.20;;;23.90;;
4182;SDS011;2105;52.300;9.182;2023-12-07T00:16:01;32.50;;;23.83;;
4182;SDS011;2105;52.300;9.182;2023-12-07T00:18:28;36.43;;;23.60;;
4182;SDS011;2105;52.300;9.182;2023-12-07T00:20:54;33.03;;;23.77;;
4182;SDS011;2105;52.300;9.182;2023-12-07T00:23:21;36.33;;;23.63;;
4182;SDS011;2105;52.300;9.182;2023-12-07T00:25:48;33.60;;;24.03;;
4182;SDS011;2105;52.300;9.182;2023-12-07T00:28:16;34.20;;;24.63;;
4182;SDS011;2105;52.300;9.182;2023-12-07T00:30:43;31.87;;;22.97;;
4182;SDS011;2105;52.300;9.182;2023-12-07T00:33:09;33.27;;;22.90;;
4182;SDS011;2105;52.300;9.182;2023-12-07T00:35:36;39.93;;;24.50;;
4182;SDS011;2105;52.300;9.182;2023-12-07T00:38:02;34.70;;;24.73;;
4182;SDS011;2105;52.300;9.182;2023-12-07T00:40:31;32.17;;;22.50;;
4182;SDS011;2105;52.300;9.182;2023-12-07T00:43:00;32.77;;;23.83;;
4182;SDS011;2105;52.300;9.182;2023-12-07T00:45:28;30.53;;;23.47;;
4182;SDS011;2105;52.300;9.182;2023-12-07T00:47:55;31.10;;;22.87;;
4182;SDS011;2105;52.300;9.182;2023-12-07T00:50:22;29.23;;;23.07;;
4182;SDS011;2105;52.300;9.182;2023-12-07T00:52:49;30.70;;;23.70;;
4182;SDS011;2105;52.300;9.182;2023-12-07T00:55:15;34.37;;;24.80;;
4182;SDS011;2105;52.300;9.182;2023-12-07T00:57:42;32.90;;;22.50;;
4182;SDS011;2105;52.300;9.182;2023-12-07T01:00:09;29.77;;;22.60;;
4182;SDS011;2105;52.300;9.182;2023-12-07T01:02:37;32.83;;;22.67;;
4182;SDS011;2105;52.300;9.182;2023-12-07T01:05:05;28.53;;;22.57;;
4182;SDS011;2105;52.300;9.182;2023-12-07T01:07:31;30.27;;;23.00;;
4182;SDS011;2105;52.300;9.182;2023-12-07T01:09:58;30.90;;;23.23;;
4182;SDS011;2105;52.300;9.182;2023-12-07T01:12:25;29.27;;;22.73;;
4182;SDS011;2105;52.300;9.182;2023-12-07T01:14:51;31.27;;;22.20;;
4182;SDS011;2105;52.300;9.182;2023-12-07T01:17:18;29.60;;;21.97;;
4182;SDS011;2105;52.300;9.182;2023-12-07T01:19:46;28.97;;;21.97;;
4182;SDS011;2105;52.300;9.182;2023-12-07T01:22:12;28.37;;;21.20;;
4182;SDS011;2105;52.300;9.182;2023-12-07T01:24:39;33.33;;;22.67;;
4182;SDS011;2105;52.300;9.182;2023-12-07T01:27:06;27.70;;;22.70;;
4182;SDS011;2105;52.300;9.182;2023-12-07T01:29:32;30.90;;;22.07;;
4182;SDS011;2105;52.300;9.182;2023-12-07T01:31:59;27.40;;;20.90;;
4182;SDS011;2105;52.300;9.182;2023-12-07T01:34:26;27.17;;;21.77;;
4182;SDS011;2105;52.300;9.182;2023-12-07T01:36:54;28.53;;;21.47;;
4182;SDS011;2105;52.300;9.182;2023-12-07T01:39:20;30.67;;;22.40;;
4182;SDS011;2105;52.300;9.182;2023-12-07T01:41:47;31.20;;;23.10;;
4182;SDS011;2105;52.300;9.182;2023-12-07T01:44:14;29.77;;;21.60;;
4182;SDS011;2105;52.300;9.182;2023-12-07T01:46:40;28.47;;;22.80;;
4182;SDS011;2105;52.300;9.182;2023-12-07T01:49:08;29.27;;;22.10;;
4182;SDS011;2105;52.300;9.182;2023-12-07T01:51:35;32.70;;;23.83;;
4182;SDS011;2105;52.300;9.182;2023-12-07T01:54:03;27.70;;;22.10;;
4182;SDS011;2105;52.300;9.182;2023-12-07T01:56:30;32.80;;;21.90;;
4182;SDS011;2105;52.300;9.182;2023-12-07T01:58:57;29.33;;;23.30;;
4182;SDS011;2105;52.300;9.182;2023-12-07T02:01:24;30.23;;;22.50;;
4182;SDS011;2105;52.300;9.182;2023-12-07T02:03:50;33.57;;;23.77;;
4182;SDS011;2105;52.300;9.182;2023-12-07T02:06:17;33.83;;;24.37;;
4182;SDS011;2105;52.300;9.182;2023-12-07T02:08:45;31.10;;;22.40;;
4182;SDS011;2105;52.300;9.182;2023-12-07T02:11:13;33.37;;;22.80;;
4182;SDS011;2105;52.300;9.182;2023-12-07T02:13:40;31.10;;;22.43;;
4182;SDS011;2105;52.300;9.182;2023-12-07T02:16:10;30.30;;;22.07;;
4182;SDS011;2105;52.300;9.182;2023-12-07T02:18:44;33.30;;;24.33;;
4182;SDS011;2105;52.300;9.182;2023-12-07T02:21:18;28.43;;;22.93;;
4182;SDS011;2105;52.300;9.182;2023-12-07T02:23:51;33.20;;;23.70;;
4182;SDS011;2105;52.300;9.182;2023-12-07T02:26:20;33.53;;;23.10;;
4182;SDS011;2105;52.300;9.182;2023-12-07T02:28:50;31.97;;;21.77;;
4182;SDS011;2105;52.300;9.182;2023-12-07T02:31:18;31.97;;;23.47;;
4182;SDS011;2105;52.300;9.182;2023-12-07T02:33:45;30.00;;;23.37;;
4182;SDS011;2105;52.300;9.182;2023-12-07T02:36:12;29.30;;;22.33;;
4182;SDS011;2105;52.300;9.182;2023-12-07T02:38:41;32.90;;;23.47;;
4182;SDS011;2105;52.300;9.182;2023-12-07T02:41:10;31.70;;;23.00;;
4182;SDS011;2105;52.300;9.182;2023-12-07T02:43:37;33.00;;;23.60;;
4182;SDS011;2105;52.300;9.182;2023-12-07T02:46:05;34.10;;;23.83;;
4182;SDS011;2105;52.300;9.182;2023-12-07T02:48:32;35.00;;;22.20;;
4182;SDS011;2105;52.300;9.182;2023-12-07T02:50:59;28.93;;;22.73;;
4182;SDS011;2105;52.300;9.182;2023-12-07T02:53:26;27.90;;;22.07;;
4182;SDS011;2105;52.300;9.182;2023-12-07T02:55:52;29.87;;;23.87;;
4182;SDS011;2105;52.300;9.182;2023-12-07T02:58:19;29.70;;;23.00;;
4182;SDS011;2105;52.300;9.182;2023-12-07T03:00:46;29.73;;;22.60;;
4182;SDS011;2105;52.300;9.182;2023-12-07T03:03:14;30.90;;;23.33;;
4182;SDS011;2105;52.300;9.182;2023-12-07T03:05:40;30.00;;;23.07;;
4182;SDS011;2105;52.300;9.182;2023-12-07T03:08:07;28.77;;;22.10;;
4182;SDS011;2105;52.300;9.182;2023-12-07T03:10:35;31.20;;;23.70;;
4182;SDS011;2105;52.300;9.182;2023-12-07T03:13:01;27.70;;;20.63;;
4182;SDS011;2105;52.300;9.182;2023-12-07T03:15:28;33.70;;;23.50;;
4182;SDS011;2105;52.300;9.182;2023-12-07T03:17:55;33.60;;;23.23;;
4182;SDS011;2105;52.300;9.182;2023-12-07T03:20:23;35.73;;;23.73;;
4182;SDS011;2105;52.300;9.182;2023-12-07T03:22:49;31.03;;;23.10;;
4182;SDS011;2105;52.300;9.182;2023-12-07T03:25:16;37.20;;;23.90;;
4182;SDS011;2105;52.300;9.182;2023-12-07T03:27:43;35.80;;;23.23;;
4182;SDS011;2105;52.300;9.182;2023-12-07T03:30:10;37.37;;;23.50;;
4182;SDS011;2105;52.300;9.182;2023-12-07T03:32:37;31.53;;;24.07;;
4182;SDS011;2105;52.300;9.182;2023-12-07T03:35:04;33.47;;;24.17;;
4182;SDS011;2105;52.300;9.182;2023-12-07T03:37:33;35.43;;;24.50;;
4182;SDS011;2105;52.300;9.182;2023-12-07T03:39:59;29.73;;;22.80;;
4182;SDS011;2105;52.300;9.182;2023-12-07T03:42:26;35.13;;;23.50;;
4182;SDS011;2105;52.300;9.182;2023-12-07T03:44:53;34.73;;;22.80;;
4182;SDS011;2105;52.300;9.182;2023-12-07T03:47:19;37.70;;;25.57;;
4182;SDS011;2105;52.300;9.182;2023-12-07T03:49:46;35.63;;;24.70;;
4182;SDS011;2105;52.300;9.182;2023-12-07T03:52:13;36.90;;;25.53;;
4182;SDS011;2105;52.300;9.182;2023-12-07T03:54:41;36.93;;;25.20;;
4182;SDS011;2105;52.300;9.182;2023-12-07T03:57:07;38.63;;;23.77;;
4182;SDS011;2105;52.300;9.182;2023-12-07T03:59:35;40.07;;;25.80;;
4182;SDS011;2105;52.300;9.182;2023-12-07T04:02:02;41.50;;;25.70;;
4182;SDS011;2105;52.300;9.182;2023-12-07T04:04:29;40.03;;;24.57;;
4182;SDS011;2105;52.300;9.182;2023-12-07T04:06:56;39.33;;;25.17;;
4182;SDS011;2105;52.300;9.182;2023-12-07T04:09:22;40.80;;;25.60;;
4182;SDS011;2105;52.300;9.182;2023-12-07T04:11:50;40.10;;;25.43;;
4182;SDS011;2105;52.300;9.182;2023-12-07T04:14:17;37.00;;;25.97;;
4182;SDS011;2105;52.300;9.182;2023-12-07T04:16:44;36.47;;;25.40;;
4182;SDS011;2105;52.300;9.182;2023-12-07T04:19:10;40.03;;;25.60;;
4182;SDS011;2105;52.300;9.182;2023-12-07T04:21:37;41.77;;;25.23;;
4182;SDS011;2105;52.300;9.182;2023-12-07T04:24:04;42.10;;;24.80;;
4182;SDS011;2105;52.300;9.182;2023-12-07T04:26:31;39.37;;;24.67;;
4182;SDS011;2105;52.300;9.182;2023-12-07T04:28:59;33.83;;;23.53;;
4182;SDS011;2105;52.300;9.182;2023-12-07T04:31:25;35.60;;;23.97;;
4182;SDS011;2105;52.300;9.182;2023-12-07T04:33:52;36.63;;;23.57;;
4182;SDS011;2105;52.300;9.182;2023-12-07T04:36:19;35.30;;;23.10;;
4182;SDS011;2105;52.300;9.182;2023-12-07T04:38:45;34.53;;;24.30;;
4182;SDS011;2105;52.300;9.182;2023-12-07T04:41:12;35.80;;;22.90;;
4182;SDS011;2105;52.300;9.182;2023-12-07T04:43:39;31.83;;;23.00;;
4182;SDS011;2105;52.300;9.182;2023-12-07T04:46:07;37.83;;;24.97;;
4182;SDS011;2105;52.300;9.182;2023-12-07T04:48:33;30.40;;;22.93;;
4182;SDS011;2105;52.300;9.182;2023-12-07T04:51:00;31.30;;;22.80;;
4182;SDS011;2105;52.300;9.182;2023-12-07T04:53:27;34.80;;;23.57;;
4182;SDS011;2105;52.300;9.182;2023-12-07T04:55:53;30.00;;;20.00;;
4182;SDS011;2105;52.300;9.182;2023-12-07T04:58:20;39.27;;;22.77;;
4182;SDS011;2105;52.300;9.182;2023-12-07T05:00:47;35.07;;;22.23;;
4182;SDS011;2105;52.300;9.182;2023-12-07T05:03:15;34.23;;;23.67;;
4182;SDS011;2105;52.300;9.182;2023-12-07T05:05:41;28.97;;;21.37;;
4182;SDS011;2105;52.300;9.182;2023-12-07T05:08:08;35.37;;;22.53;;
4182;SDS011;2105;52.300;9.182;2023-12-07T05:10:35;33.77;;;22.97;;
4182;SDS011;2105;52.300;9.182;2023-12-07T05:13:01;39.83;;;24.07;;
4182;SDS011;2105;52.300;9.182;2023-12-07T05:15:28;34.03;;;23.00;;
4182;SDS011;2105;52.300;9.182;2023-12-07T05:17:55;30.07;;;22.57;;
4182;SDS011;2105;52.300;9.182;2023-12-07T05:20:23;31.87;;;22.47;;
4182;SDS011;2105;52.300;9.182;2023-12-07T05:22:51;34.37;;;22.90;;
4182;SDS011;2105;52.300;9.182;2023-12-07T05:25:18;37.03;;;22.50;;
4182;SDS011;2105;52.300;9.182;2023-12-07T05:27:44;29.93;;;22.87;;
4182;SDS011;2105;52.300;9.182;2023-12-07T05:30:11;32.40;;;21.90;;
4182;SDS011;2105;52.300;9.182;2023-12-07T05:32:38;29.53;;;21.27;;
4182;SDS011;2105;52.300;9.182;2023-12-07T05:35:05;38.90;;;22.37;;
4182;SDS011;2105;52.300;9.182;2023-12-07T05:37:34;28.90;;;21.83;;
4182;SDS011;2105;52.300;9.182;2023-12-07T05:40:01;30.93;;;21.17;;
4182;SDS011;2105;52.300;9.182;2023-12-07T05:42:27;30.60;;;22.63;;
4182;SDS011;2105;52.300;9.182;2023-12-07T05:44:54;30.73;;;22.43;;
4182;SDS011;2105;52.300;9.182;2023-12-07T05:47:21;33.70;;;22.13;;
4182;SDS011;2105;52.300;9.182;2023-12-07T05:49:48;29.33;;;20.67;;
4182;SDS011;2105;52.300;9.182;2023-12-07T05:52:15;30.37;;;21.70;;
4182;SDS011;2105;52.300;9.182;2023-12-07T05:54:43;33.73;;;22.90;;
4182;SDS011;2105;52.300;9.182;2023-12-07T05:57:11;30.47;;;22.23;;
4182;SDS011;2105;52.300;9.182;2023-12-07T05:59:38;31.47;;;21.00;;
4182;SDS011;2105;52.300;9.182;2023-12-07T06:02:06;34.30;;;22.40;;
4182;SDS011;2105;52.300;9.182;2023-12-07T06:04:33;33.67;;;21.87;;
4182;SDS011;2105;52.300;9.182;2023-12-07T06:07:00;35.00;;;20.53;;
4182;SDS011;2105;52.300;9.182;2023-12-07T06:09:27;26.70;;;20.33;;
4182;SDS011;2105;52.300;9.182;2023-12-07T06:11:55;34.50;;;21.93;;
4182;SDS011;2105;52.300;9.182;2023-12-07T06:14:22;32.60;;;21.70;;
4182;SDS011;2105;52.300;9.182;2023-12-07T06:16:49;27.97;;;21.03;;
4182;SDS011;2105;52.300;9.182;2023-12-07T06:19:15;27.20;;;21.27;;
4182;SDS011;2105;52.300;9.182;2023-12-07T06:21:42;29.73;;;21.70;;
4182;SDS011;2105;52.300;9.182;2023-12-07T06:24:09;30.50;;;21.87;;
4182;SDS011;2105;52.300;9.182;2023-12-07T06:26:36;30.00;;;21.00;;
4182;SDS011;2105;52.300;9.182;2023-12-07T06:29:04;32.90;;;21.70;;
4182;SDS011;2105;52.300;9.182;2023-12-07T06:31:32;28.00;;;21.10;;
4182;SDS011;2105;52.300;9.182;2023-12-07T06:33:59;33.50;;;22.00;;
4182;SDS011;2105;52.300;9.182;2023-12-07T06:36:26;27.43;;;20.73;;
4182;SDS011;2105;52.300;9.182;2023-12-07T06:38:52;25.70;;;21.17;;
4182;SDS011;2105;52.300;9.182;2023-12-07T06:41:19;28.80;;;20.17;;
4182;SDS011;2105;52.300;9.182;2023-12-07T06:43:46;27.77;;;20.50;;
4182;SDS011;2105;52.300;9.182;2023-12-07T06:46:14;32.43;;;20.43;;
4182;SDS011;2105;52.300;9.182;2023-12-07T06:48:41;24.63;;;19.10;;
4182;SDS011;2105;52.300;9.182;2023-12-07T06:51:08;28.77;;;19.17;;
4182;SDS011;2105;52.300;9.182;2023-12-07T06:53:35;28.63;;;18.90;;
4182;SDS011;2105;52.300;9.182;2023-12-07T06:56:01;29.97;;;19.83;;
4182;SDS011;2105;52.300;9.182;2023-12-07T06:58:28;22.80;;;18.70;;
4182;SDS011;2105;52.300;9.182;2023-12-07T07:00:55;27.57;;;18.80;;
4182;SDS011;2105;52.300;9.182;2023-12-07T07:03:23;22.23;;;19.27;;
4182;SDS011;2105;52.300;9.182;2023-12-07T07:05:50;25.33;;;18.63;;
4182;SDS011;2105;52.300;9.182;2023-12-07T07:08:17;24.27;;;19.63;;
4182;SDS011;2105;52.300;9.182;2023-12-07T07:10:43;25.07;;;20.20;;
4182;SDS011;2105;52.300;9.182;2023-12-07T07:13:11;22.93;;;19.50;;
4182;SDS011;2105;52.300;9.182;2023-12-07T07:15:41;28.17;;;20.30;;
4182;SDS011;2105;52.300;9.182;2023-12-07T07:18:08;21.27;;;18.67;;
4182;SDS011;2105;52.300;9.182;2023-12-07T07:20:36;25.83;;;19.57;;
4182;SDS011;2105;52.300;9.182;2023-12-07T07:23:03;24.50;;;20.30;;
4182;SDS011;2105;52.300;9.182;2023-12-07T07:25:30;31.80;;;19.53;;
4182;SDS011;2105;52.300;9.182;2023-12-07T07:27:56;27.60;;;21.10;;
4182;SDS011;2105;52.300;9.182;2023-12-07T07:30:23;28.40;;;20.47;;
4182;SDS011;2105;52.300;9.182;2023-12-07T07:32:50;27.60;;;20.57;;
4182;SDS011;2105;52.300;9.182;2023-12-07T07:35:16;28.10;;;20.87;;
4182;SDS011;2105;52.300;9.182;2023-12-07T07:37:44;29.70;;;23.80;;
4182;SDS011;2105;52.300;9.182;2023-12-07T07:40:11;28.30;;;22.77;;
4182;SDS011;2105;52.300;9.182;2023-12-07T07:42:38;28.70;;;22.10;;
4182;SDS011;2105;52.300;9.182;2023-12-07T07:45:06;26.63;;;21.57;;
4182;SDS011;2105;52.300;9.182;2023-12-07T07:47:33;28.67;;;21.57;;
4182;SDS011;2105;52.300;9.182;2023-12-07T07:50:00;26.30;;;21.03;;
4182;SDS011;2105;52.300;9.182;2023-12-07T07:52:30;28.17;;;21.10;;
4182;SDS011;2105;52.300;9.182;2023-12-07T07:54:58;38.20;;;21.53;;
4182;SDS011;2105;52.300;9.182;2023-12-07T07:57:25;25.90;;;20.77;;
4182;SDS011;2105;52.300;9.182;2023-12-07T07:59:52;25.90;;;21.17;;
4182;SDS011;2105;52.300;9.182;2023-12-07T08:02:19;27.17;;;21.13;;
4182;SDS011;2105;52.300;9.182;2023-12-07T08:04:46;31.00;;;21.17;;
4182;SDS011;2105;52.300;9.182;2023-12-07T08:07:13;26.43;;;20.60;;
4182;SDS011;2105;52.300;9.182;2023-12-07T08:09:40;28.93;;;22.60;;
4182;SDS011;2105;52.300;9.182;2023-12-07T08:12:09;31.53;;;21.73;;
4182;SDS011;2105;52.300;9.182;2023-12-07T08:14:35;29.47;;;21.97;;
4182;SDS011;2105;52.300;9.182;2023-12-07T08:17:02;31.30;;;21.37;;
4182;SDS011;2105;52.300;9.182;2023-12-07T08:19:29;29.27;;;22.30;;
4182;SDS011;2105;52.300;9.182;2023-12-07T08:21:56;29.43;;;21.80;;
4182;SDS011;2105;52.300;9.182;2023-12-07T08:24:22;26.83;;;21.63;;
4182;SDS011;2105;52.300;9.182;2023-12-07T08:26:50;32.93;;;23.03;;
4182;SDS011;2105;52.300;9.182;2023-12-07T08:29:18;32.97;;;23.70;;
4182;SDS011;2105;52.300;9.182;2023-12-07T08:31:45;29.30;;;22.07;;
4182;SDS011;2105;52.300;9.182;2023-12-07T08:34:12;31.90;;;24.10;;
4182;SDS011;2105;52.300;9.182;2023-12-07T08:36:39;32.83;;;23.93;;
4182;SDS011;2105;52.300;9.182;2023-12-07T08:39:05;32.40;;;23.47;;
4182;SDS011;2105;52.300;9.182;2023-12-07T08:41:34;32.10;;;23.87;;
4182;SDS011;2105;52.300;9.182;2023-12-07T08:44:01;32.60;;;24.00;;
4182;SDS011;2105;52.300;9.182;2023-12-07T08:46:29;34.20;;;25.37;;
4182;SDS011;2105;52.300;9.182;2023-12-07T08:48:56;34.20;;;24.73;;
4182;SDS011;2105;52.300;9.182;2023-12-07T08:51:22;35.53;;;24.80;;
4182;SDS011;2105;52.300;9.182;2023-12-07T08:53:50;36.60;;;24.60;;
4182;SDS011;2105;52.300;9.182;2023-12-07T08:56:17;35.23;;;22.80;;
4182;SDS011;2105;52.300;9.182;2023-12-07T08:58:43;31.27;;;23.57;;
4182;SDS011;2105;52.300;9.182;2023-12-07T09:01:10;32.50;;;22.53;;
4182;SDS011;2105;52.300;9.182;2023-12-07T09:03:38;32.33;;;23.33;;
4182;SDS011;2105;52.300;9.182;2023-12-07T09:06:06;33.03;;;23.00;;
4182;SDS011;2105;52.300;9.182;2023-12-07T09:08:33;32.43;;;22.70;;
4182;SDS011;2105;52.300;9.182;2023-12-07T09:11:00;34.90;;;22.53;;
4182;SDS011;2105;52.300;9.182;2023-12-07T09:13:28;33.13;;;22.77;;
4182;SDS011;2105;52.300;9.182;2023-12-07T09:15:55;35.30;;;23.43;;
4182;SDS011;2105;52.300;9.182;2023-12-07T09:18:22;31.83;;;22.80;;
4182;SDS011;2105;52.300;9.182;2023-12-07T09:20:50;30.90;;;22.90;;
4182;SDS011;2105;52.300;9.182;2023-12-07T09:23:17;32.40;;;24.37;;
4182;SDS011;2105;52.300;9.182;2023-12-07T09:25:44;29.17;;;22.97;;
4182;SDS011;2105;52.300;9.182;2023-12-07T09:28:12;32.80;;;22.77;;
4182;SDS011;2105;52.300;9.182;2023-12-07T09:30:38;30.50;;;24.30;;
4182;SDS011;2105;52.300;9.182;2023-12-07T09:33:05;33.70;;;24.40;;
4182;SDS011;2105;52.300;9.182;2023-12-07T09:35:32;35.70;;;25.40;;
4182;SDS011;2105;52.300;9.182;2023-12-07T09:38:00;30.07;;;23.37;;
4182;SDS011;2105;52.300;9.182;2023-12-07T09:40:27;36.03;;;25.20;;
4182;SDS011;2105;52.300;9.182;2023-12-07T09:42:54;35.40;;;25.83;;
4182;SDS011;2105;52.300;9.182;2023-12-07T09:45:21;34.37;;;25.30;;
4182;SDS011;2105;52.300;9.182;2023-12-07T09:47:48;32.27;;;25.20;;
4182;SDS011;2105;52.300;9.182;2023-12-07T09:50:16;34.70;;;25.07;;
4182;SDS011;2105;52.300;9.182;2023-12-07T09:52:44;40.83;;;26.43;;
4182;SDS011;2105;52.300;9.182;2023-12-07T09:55:12;31.70;;;24.07;;
4182;SDS011;2105;52.300;9.182;2023-12-07T09:57:39;30.20;;;24.17;;
4182;SDS011;2105;52.300;9.182;2023-12-07T10:00:06;33.57;;;24.00;;
4182;SDS011;2105;52.300;9.182;2023-12-07T10:02:36;34.03;;;24.50;;
4182;SDS011;2105;52.300;9.182;2023-12-07T10:05:03;35.30;;;23.73;;
4182;SDS011;2105;52.300;9.182;2023-12-07T10:07:32;32.67;;;22.30;;
4182;SDS011;2105;52.300;9.182;2023-12-07T10:10:01;30.90;;;22.53;;
4182;SDS011;2105;52.300;9.182;2023-12-07T10:12:30;33.13;;;23.37;;
4182;SDS011;2105;52.300;9.182;2023-12-07T10:14:58;37.93;;;23.80;;
4182;SDS011;2105;52.300;9.182;2023-12-07T10:17:26;30.53;;;23.47;;
4182;SDS011;2105;52.300;9.182;2023-12-07T10:20:44;32.47;;;22.93;;
4182;SDS011;2105;52.300;9.182;2023-12-07T10:23:13;32.33;;;22.77;;
4182;SDS011;2105;52.300;9.182;2023-12-07T10:25:42;37.33;;;24.73;;
4182;SDS011;2105;52.300;9.182;2023-12-07T10:28:10;30.00;;;22.70;;
4182;SDS011;2105;52.300;9.182;2023-12-07T10:30:37;34.60;;;25.13;;
4182;SDS011;2105;52.300;9.182;2023-12-07T10:33:06;44.37;;;25.40;;
4182;SDS011;2105;52.300;9.182;2023-12-07T10:35:33;37.60;;;25.97;;
4182;SDS011;2105;52.300;9.182;2023-12-07T10:38:04;38.87;;;25.60;;
4182;SDS011;2105;52.300;9.182;2023-12-07T10:40:31;34.63;;;25.40;;
4182;SDS011;2105;52.300;9.182;2023-12-07T10:42:58;37.30;;;26.80;;
4182;SDS011;2105;52.300;9.182;2023-12-07T10:45:31;36.00;;;26.80;;
4182;SDS011;2105;52.300;9.182;2023-12-07T10:48:00;39.60;;;27.43;;
4182;SDS011;2105;52.300;9.182;2023-12-07T10:50:32;40.20;;;27.57;;
4182;SDS011;2105;52.300;9.182;2023-12-07T10:53:04;45.83;;;29.33;;
4182;SDS011;2105;52.300;9.182;2023-12-07T10:55:50;40.03;;;27.53;;
4182;SDS011;2105;52.300;9.182;2023-12-07T10:58:21;38.13;;;27.43;;
4182;SDS011;2105;52.300;9.182;2023-12-07T11:00:51;40.47;;;29.07;;
4182;SDS011;2105;52.300;9.182;2023-12-07T11:03:18;40.40;;;28.73;;
4182;SDS011;2105;52.300;9.182;2023-12-07T11:05:47;44.50;;;29.73;;
4182;SDS011;2105;52.300;9.182;2023-12-07T11:08:15;40.63;;;29.00;;
4182;SDS011;2105;52.300;9.182;2023-12-07T11:10:48;40.20;;;28.47;;
4182;SDS011;2105;52.300;9.182;2023-12-07T11:13:22;46.40;;;29.50;;
4182;SDS011;2105;52.300;9.182;2023-12-07T11:15:53;39.70;;;27.77;;
4182;SDS011;2105;52.300;9.182;2023-12-07T11:18:20;36.50;;;25.33;;
4182;SDS011;2105;52.300;9.182;2023-12-07T11:20:47;35.20;;;25.07;;
4182;SDS011;2105;52.300;9.182;2023-12-07T11:23:15;37.23;;;26.00;;
4182;SDS011;2105;52.300;9.182;2023-12-07T11:25:43;39.07;;;25.20;;
4182;SDS011;2105;52.300;9.182;2023-12-07T11:28:11;33.67;;;24.97;;
4182;SDS011;2105;52.300;9.182;2023-12-07T11:30:38;32.60;;;24.47;;
4182;SDS011;2105;52.300;9.182;2023-12-07T11:33:10;31.00;;;24.33;;
4182;SDS011;2105;52.300;9.182;2023-12-07T11:38:32;35.27;;;25.60;;
4182;SDS011;2105;52.300;9.182;2023-12-07T11:40:59;36.80;;;24.27;;
4182;SDS011;2105;52.300;9.182;2023-12-07T11:43:36;38.53;;;25.10;;
4182;SDS011;2105;52.300;9.182;2023-12-07T11:46:08;31.13;;;23.50;;
4182;SDS011;2105;52.300;9.182;2023-12-07T11:48:37;29.47;;;22.77;;
4182;SDS011;2105;52.300;9.182;2023-12-07T11:51:04;32.60;;;23.67;;
4182;SDS011;2105;52.300;9.182;2023-12-07T11:53:32;28.10;;;22.20;;
4182;SDS011;2105;52.300;9.182;2023-12-07T11:56:00;34.50;;;24.77;;
4182;SDS011;2105;52.300;9.182;2023-12-07T11:58:28;29.60;;;23.40;;
4182;SDS011;2105;52.300;9.182;2023-12-07T12:00:56;30.23;;;24.47;;
4182;SDS011;2105;52.300;9.182;2023-12-07T12:03:23;34.03;;;23.87;;
4182;SDS011;2105;52.300;9.182;2023-12-07T12:05:51;28.70;;;22.77;;
4182;SDS011;2105;52.300;9.182;2023-12-07T12:08:19;31.20;;;24.50;;
4182;SDS011;2105;52.300;9.182;2023-12-07T12:10:47;34.03;;;25.07;;
4182;SDS011;2105;52.300;9.182;2023-12-07T12:13:16;40.43;;;24.37;;
4182;SDS011;2105;52.300;9.182;2023-12-07T12:15:43;29.90;;;23.40;;
4182;SDS011;2105;52.300;9.182;2023-12-07T12:18:12;30.33;;;23.63;;
4182;SDS011;2105;52.300;9.182;2023-12-07T12:20:39;34.93;;;23.73;;
4182;SDS011;2105;52.300;9.182;2023-12-07T12:23:07;30.90;;;23.60;;
4182;SDS011;2105;52.300;9.182;2023-12-07T12:25:34;32.40;;;24.73;;
4182;SDS011;2105;52.300;9.182;2023-12-07T12:28:01;37.47;;;25.73;;
4182;SDS011;2105;52.300;9.182;2023-12-07T12:30:29;33.40;;;23.90;;
4182;SDS011;2105;52.300;9.182;2023-12-07T12:32:57;33.50;;;24.17;;
4182;SDS011;2105;52.300;9.182;2023-12-07T12:35:24;36.80;;;23.20;;
4182;SDS011;2105;52.300;9.182;2023-12-07T12:37:51;28.77;;;21.60;;
4182;SDS011;2105;52.300;9.182;2023-12-07T12:40:22;29.33;;;22.13;;
4182;SDS011;2105;52.300;9.182;2023-12-07T12:42:49;28.57;;;22.10;;
4182;SDS011;2105;52.300;9.182;2023-12-07T12:45:17;25.77;;;21.67;;
4182;SDS011;2105;52.300;9.182;2023-12-07T12:47:45;26.40;;;21.80;;
4182;SDS011;2105;52.300;9.182;2023-12-07T12:50:13;26.07;;;22.50;;
4182;SDS011;2105;52.300;9.182;2023-12-07T12:52:59;31.50;;;22.13;;
4182;SDS011;2105;52.300;9.182;2023-12-07T12:55:27;30.57;;;21.43;;
4182;SDS011;2105;52.300;9.182;2023-12-07T12:57:56;31.13;;;22.40;;
4182;SDS011;2105;52.300;9.182;2023-12-07T13:00:24;29.30;;;22.43;;
4182;SDS011;2105;52.300;9.182;2023-12-07T13:02:51;29.90;;;23.07;;
4182;SDS011;2105;52.300;9.182;2023-12-07T13:05:17;28.20;;;22.60;;
4182;SDS011;2105;52.300;9.182;2023-12-07T13:07:44;39.03;;;25.60;;
4182;SDS011;2105;52.300;9.182;2023-12-07T13:10:13;34.87;;;24.40;;
4182;SDS011;2105;52.300;9.182;2023-12-07T13:12:41;30.40;;;23.03;;
4182;SDS011;2105;52.300;9.182;2023-12-07T13:15:09;27.83;;;23.70;;
4182;SDS011;2105;52.300;9.182;2023-12-07T13:17:37;25.47;;;21.70;;
4182;SDS011;2105;52.300;9.182;2023-12-07T13:20:04;32.20;;;23.80;;
4182;SDS011;2105;52.300;9.182;2023-12-07T13:22:32;29.00;;;24.87;;
4182;SDS011;2105;52.300;9.182;2023-12-07T13:24:59;29.53;;;24.87;;
4182;SDS011;2105;52.300;9.182;2023-12-07T13:27:26;26.00;;;23.30;;
4182;SDS011;2105;52.300;9.182;2023-12-07T13:29:54;28.53;;;24.03;;
4182;SDS011;2105;52.300;9.182;2023-12-07T13:32:21;28.50;;;24.13;;
4182;SDS011;2105;52.300;9.182;2023-12-07T13:34:48;24.40;;;22.03;;
4182;SDS011;2105;52.300;9.182;2023-12-07T13:37:15;25.30;;;22.70;;
4182;SDS011;2105;52.300;9.182;2023-12-07T13:39:42;23.63;;;21.23;;
4182;SDS011;2105;52.300;9.182;2023-12-07T13:42:08;27.43;;;22.10;;
4182;SDS011;2105;52.300;9.182;2023-12-07T13:44:35;23.93;;;21.30;;
4182;SDS011;2105;52.300;9.182;2023-12-07T13:47:03;24.00;;;21.43;;
4182;SDS011;2105;52.300;9.182;2023-12-07T13:49:30;22.97;;;20.67;;
4182;SDS011;2105;52.300;9.182;2023-12-07T13:51:57;25.10;;;21.10;;
4182;SDS011;2105;52.300;9.182;2023-12-07T13:54:25;23.67;;;21.07;;
4182;SDS011;2105;52.300;9.182;2023-12-07T13:56:51;25.33;;;22.63;;
4182;SDS011;2105;52.300;9.182;2023-12-07T13:59:18;25.30;;;22.03;;
4182;SDS011;2105;52.300;9.182;2023-12-07T14:01:45;27.70;;;22.93;;
4182;SDS011;2105;52.300;9.182;2023-12-07T14:04:13;27.30;;;23.53;;
4182;SDS011;2105;52.300;9.182;2023-12-07T14:06:39;30.90;;;25.37;;
4182;SDS011;2105;52.300;9.182;2023-12-07T14:09:06;31.80;;;24.73;;
4182;SDS011;2105;52.300;9.182;2023-12-07T14:11:47;29.63;;;25.07;;
4182;SDS011;2105;52.300;9.182;2023-12-07T14:14:13;30.27;;;24.97;;
4182;SDS011;2105;52.300;9.182;2023-12-07T14:16:41;34.27;;;26.80;;
4182;SDS011;2105;52.300;9.182;2023-12-07T14:19:08;30.93;;;25.23;;
4182;SDS011;2105;52.300;9.182;2023-12-07T14:21:36;30.70;;;24.60;;
4182;SDS011;2105;52.300;9.182;2023-12-07T14:24:03;34.13;;;25.50;;
4182;SDS011;2105;52.300;9.182;2023-12-07T14:26:30;38.93;;;26.60;;
4182;SDS011;2105;52.300;9.182;2023-12-07T14:28:56;33.20;;;25.60;;
4182;SDS011;2105;52.300;9.182;2023-12-07T14:31:23;33.30;;;26.50;;
4182;SDS011;2105;52.300;9.182;2023-12-07T14:33:50;39.33;;;26.40;;
4182;SDS011;2105;52.300;9.182;2023-12-07T14:36:18;33.87;;;25.70;;
4182;SDS011;2105;52.300;9.182;2023-12-07T14:38:46;32.77;;;24.67;;
4182;SDS011;2105;52.300;9.182;2023-12-07T14:41:13;32.83;;;24.63;;
4182;SDS011;2105;52.300;9.182;2023-12-07T14:43:42;31.20;;;23.53;;
4182;SDS011;2105;52.300;9.182;2023-12-07T14:46:08;33.40;;;23.53;;
4182;SDS011;2105;52.300;9.182;2023-12-07T14:48:36;31.90;;;22.33;;
4182;SDS011;2105;52.300;9.182;2023-12-07T14:51:03;35.60;;;23.80;;
4182;SDS011;2105;52.300;9.182;2023-12-07T14:53:30;31.40;;;22.27;;